createdAt,value
2023-02-09T00:01:11.785Z,101845.23
2023-02-09T00:03:39.583Z,101848.55
2023-02-09T00:06:07.414Z,101843.40
2023-02-09T00:08:35.080Z,101831.61
2023-02-09T00:11:02.845Z,101819.35
2023-02-09T00:13:30.613Z,101814.36
2023-02-09T00:15:58.415Z,101802.39
2023-02-09T00:18:26.236Z,101805.16
2023-02-09T00:20:53.998Z,101803.01
2023-02-09T00:23:21.766Z,101800.92
2023-02-09T00:25:49.526Z,101803.60
2023-02-09T00:28:17.221Z,101801.79
2023-02-09T00:30:45.326Z,101799.85
2023-02-09T00:33:13.430Z,101792.56
2023-02-09T00:35:41.502Z,101788.69
2023-02-09T00:38:09.169Z,101787.02
2023-02-09T00:40:36.928Z,101783.92
2023-02-09T00:43:04.621Z,101784.61
2023-02-09T00:45:32.698Z,101781.02
2023-02-09T00:48:00.532Z,101780.65
2023-02-09T00:50:28.289Z,101776.15
2023-02-09T00:52:55.951Z,101770.61
2023-02-09T00:55:23.732Z,101763.68
2023-02-09T00:57:51.481Z,101751.59
2023-02-09T01:00:20.797Z,101743.65
2023-02-09T01:02:48.542Z,101742.70
2023-02-09T01:05:16.408Z,101745.45
2023-02-09T01:07:44.075Z,101743.86
2023-02-09T01:10:11.841Z,101742.45
2023-02-09T01:12:40.008Z,101736.67
2023-02-09T01:15:07.886Z,101731.83
2023-02-09T01:17:36.043Z,101731.02
2023-02-09T01:20:03.708Z,101730.39
2023-02-09T01:22:31.478Z,101737.09
2023-02-09T01:24:59.239Z,101748.05
2023-02-09T01:27:26.997Z,101758.84
2023-02-09T01:29:54.758Z,101768.52
2023-02-09T01:32:22.522Z,101770.55
2023-02-09T01:34:50.298Z,101763.40
2023-02-09T01:37:18.049Z,101766.88
2023-02-09T01:39:45.917Z,101760.80
2023-02-09T01:42:13.683Z,101759.80
2023-02-09T01:44:41.446Z,101747.29
2023-02-09T01:47:09.109Z,101735.23
2023-02-09T01:49:36.770Z,101728.91
2023-02-09T01:52:04.429Z,101726.37
2023-02-09T01:54:32.095Z,101726.80
2023-02-09T01:56:59.860Z,101725.41
2023-02-09T01:59:27.621Z,101725.29
2023-02-09T02:01:55.386Z,101726.80
2023-02-09T02:04:23.180Z,101722.02
2023-02-09T02:06:50.914Z,101721.05
2023-02-09T02:09:18.578Z,101723.27
2023-02-09T02:11:46.341Z,101726.74
2023-02-09T02:14:14.203Z,101731.80
2023-02-09T02:16:41.864Z,101731.81
2023-02-09T02:19:09.626Z,101723.52
2023-02-09T02:21:37.388Z,101719.53
2023-02-09T02:24:05.152Z,101714.25
2023-02-09T02:26:32.917Z,101707.80
2023-02-09T02:29:00.681Z,101704.92
2023-02-09T02:31:28.468Z,101703.40
2023-02-09T02:33:56.411Z,101699.17
2023-02-09T02:36:24.176Z,101690.58
2023-02-09T02:38:53.885Z,101691.89
2023-02-09T02:41:22.058Z,101688.52
2023-02-09T02:43:49.824Z,101685.17
2023-02-09T02:46:17.655Z,101683.14
2023-02-09T02:48:45.566Z,101676.81
2023-02-09T02:51:13.329Z,101677.27
2023-02-09T02:53:41.810Z,101679.22
2023-02-09T02:56:09.569Z,101678.59
2023-02-09T02:58:37.332Z,101673.67
2023-02-09T03:01:05.200Z,101674.63
2023-02-09T03:03:32.905Z,101677.23
2023-02-09T03:06:00.728Z,101678.91
2023-02-09T03:08:28.391Z,101676.30
2023-02-09T03:10:56.157Z,101675.77
2023-02-09T03:13:23.917Z,101672.65
2023-02-09T03:15:51.731Z,101669.02
2023-02-09T03:18:19.547Z,101667.02
2023-02-09T03:20:47.530Z,101661.67
2023-02-09T03:23:15.382Z,101662.19
2023-02-09T03:25:43.050Z,101658.64
2023-02-09T03:28:10.861Z,101657.36
2023-02-09T03:30:42.271Z,101649.49
2023-02-09T03:33:10.684Z,101653.85
2023-02-09T03:35:38.501Z,101654.56
2023-02-09T03:38:07.443Z,101654.35
2023-02-09T03:40:35.257Z,101656.73
2023-02-09T03:43:02.920Z,101660.34
2023-02-09T03:45:30.689Z,101658.48
2023-02-09T03:47:58.447Z,101658.66
2023-02-09T03:50:26.207Z,101661.05
2023-02-09T03:52:53.974Z,101660.61
2023-02-09T03:55:21.737Z,101656.59
2023-02-09T03:57:49.500Z,101649.91
2023-02-09T04:00:17.274Z,101646.10
2023-02-09T04:02:45.057Z,101645.50
2023-02-09T04:05:12.896Z,101648.92
2023-02-09T04:07:41.582Z,101647.92
2023-02-09T04:10:10.519Z,101647.96
2023-02-09T04:12:40.393Z,101646.39
2023-02-09T04:15:08.022Z,101643.67
2023-02-09T04:17:35.806Z,101649.84
2023-02-09T04:20:03.585Z,101652.60
2023-02-09T04:22:31.335Z,101657.65
2023-02-09T04:24:59.099Z,101664.98
2023-02-09T04:27:28.600Z,101665.09
2023-02-09T04:29:56.265Z,101665.87
2023-02-09T04:32:24.034Z,101668.66
2023-02-09T04:34:51.794Z,101666.02
2023-02-09T04:37:19.592Z,101660.86
2023-02-09T04:39:47.426Z,101659.86
2023-02-09T04:42:15.086Z,101660.38
2023-02-09T04:44:42.852Z,101658.52
2023-02-09T04:47:10.617Z,101657.98
2023-02-09T04:49:38.380Z,101662.20
2023-02-09T04:52:06.145Z,101661.42
2023-02-09T04:54:33.810Z,101662.01
2023-02-09T04:57:20.308Z,101655.45
2023-02-09T04:59:47.973Z,101647.09
2023-02-09T05:02:15.735Z,101648.51
2023-02-09T05:04:43.503Z,101645.05
2023-02-09T05:07:11.261Z,101641.84
2023-02-09T05:09:38.923Z,101643.49
2023-02-09T05:12:10.270Z,101642.10
2023-02-09T05:14:38.035Z,101641.63
2023-02-09T05:17:05.801Z,101645.09
2023-02-09T05:19:33.563Z,101645.44
2023-02-09T05:22:01.236Z,101644.92
2023-02-09T05:24:29.090Z,101639.09
2023-02-09T05:26:56.854Z,101635.96
2023-02-09T05:29:24.618Z,101635.38
2023-02-09T05:31:52.327Z,101630.86
2023-02-09T05:34:20.249Z,101632.92
2023-02-09T05:36:48.025Z,101627.20
2023-02-09T05:39:15.778Z,101632.13
2023-02-09T05:42:02.485Z,101629.73
2023-02-09T05:44:30.247Z,101633.84
2023-02-09T05:46:57.908Z,101629.11
2023-02-09T05:49:25.674Z,101629.23
2023-02-09T05:51:53.439Z,101631.93
2023-02-09T05:54:21.214Z,101632.80
2023-02-09T05:56:48.961Z,101633.70
2023-02-09T05:59:16.725Z,101634.42
2023-02-09T06:01:44.490Z,101635.48
2023-02-09T06:04:12.262Z,101637.61
2023-02-09T06:06:40.014Z,101636.33
2023-02-09T06:09:07.779Z,101641.64
2023-02-09T06:11:35.542Z,101643.18
2023-02-09T06:14:03.411Z,101642.45
2023-02-09T06:16:31.277Z,101640.12
2023-02-09T06:18:59.041Z,101640.40
2023-02-09T06:21:26.802Z,101637.77
2023-02-09T06:23:54.572Z,101636.00
2023-02-09T06:26:22.328Z,101632.39
2023-02-09T06:28:50.097Z,101634.79
2023-02-09T06:31:17.976Z,101634.09
2023-02-09T06:33:45.828Z,101636.33
2023-02-09T06:36:13.590Z,101638.99
2023-02-09T06:38:41.357Z,101639.77
2023-02-09T06:41:09.123Z,101637.23
2023-02-09T06:43:36.893Z,101638.36
2023-02-09T06:46:04.709Z,101634.45
2023-02-09T06:48:32.514Z,101627.67
2023-02-09T06:51:00.278Z,101629.80
2023-02-09T06:53:28.145Z,101626.23
2023-02-09T06:55:55.806Z,101627.39
2023-02-09T06:58:23.572Z,101627.74
2023-02-09T07:00:51.338Z,101622.10
2023-02-09T07:03:19.100Z,101620.00
2023-02-09T07:05:46.866Z,101623.01
2023-02-09T07:08:14.727Z,101620.15
2023-02-09T07:10:42.496Z,101619.74
2023-02-09T07:13:10.132Z,101623.72
2023-02-09T07:15:37.946Z,101626.60
2023-02-09T07:18:05.988Z,101623.23
2023-02-09T07:20:33.956Z,101617.38
2023-02-09T07:23:01.830Z,101615.65
2023-02-09T07:25:29.587Z,101614.75
2023-02-09T07:27:57.402Z,101619.83
2023-02-09T07:30:25.216Z,101620.06
2023-02-09T07:32:52.983Z,101620.86
2023-02-09T07:35:20.748Z,101620.17
2023-02-09T07:37:48.506Z,101625.48
2023-02-09T07:40:16.377Z,101626.23
2023-02-09T07:42:44.135Z,101623.15
2023-02-09T07:45:12.208Z,101623.81
2023-02-09T07:47:39.980Z,101628.14
2023-02-09T07:50:07.838Z,101627.06
2023-02-09T07:52:35.603Z,101629.42
2023-02-09T07:55:03.464Z,101636.86
2023-02-09T07:57:33.110Z,101638.66
2023-02-09T08:00:00.842Z,101638.48
2023-02-09T08:02:28.613Z,101640.57
2023-02-09T08:04:56.605Z,101639.34
2023-02-09T08:07:24.331Z,101639.01
2023-02-09T08:09:52.094Z,101644.95
2023-02-09T08:12:19.791Z,101638.79
2023-02-09T08:14:48.648Z,101639.30
2023-02-09T08:17:28.191Z,101638.13
2023-02-09T08:19:55.952Z,101640.88
2023-02-09T08:22:23.716Z,101641.95
2023-02-09T08:24:51.481Z,101642.83
2023-02-09T08:27:19.348Z,101637.16
2023-02-09T08:29:48.838Z,101637.41
2023-02-09T08:32:17.003Z,101633.91
2023-02-09T08:34:44.891Z,101633.55
2023-02-09T08:37:12.673Z,101631.82
2023-02-09T08:39:40.436Z,101637.89
2023-02-09T08:42:08.160Z,101639.86
2023-02-09T08:44:35.844Z,101640.14
2023-02-09T08:47:03.761Z,101638.79
2023-02-09T08:49:31.682Z,101634.15
2023-02-09T08:51:59.446Z,101623.67
2023-02-09T08:54:27.316Z,101619.41
2023-02-09T08:56:55.077Z,101615.98
2023-02-09T08:59:23.678Z,101610.61
2023-02-09T09:01:51.423Z,101609.40
2023-02-09T09:04:21.237Z,101609.41
2023-02-09T09:06:49.522Z,101611.05
2023-02-09T09:09:17.282Z,101605.46
2023-02-09T09:11:44.942Z,101608.02
2023-02-09T09:14:12.711Z,101605.55
2023-02-09T09:16:40.541Z,101604.06
2023-02-09T09:19:08.331Z,101605.16
2023-02-09T09:21:36.095Z,101601.43
2023-02-09T09:24:03.861Z,101602.65
2023-02-09T09:26:31.611Z,101603.17
2023-02-09T09:28:59.385Z,101604.73
2023-02-09T09:31:27.178Z,101604.29
2023-02-09T09:33:55.016Z,101609.09
2023-02-09T09:36:22.786Z,101610.52
2023-02-09T09:38:50.545Z,101612.81
2023-02-09T09:41:18.258Z,101613.81
2023-02-09T09:43:45.973Z,101609.15
2023-02-09T09:46:13.765Z,101608.77
2023-02-09T09:48:41.601Z,101611.50
2023-02-09T09:51:09.365Z,101606.17
2023-02-09T09:53:37.231Z,101598.30
2023-02-09T09:56:04.999Z,101598.35
2023-02-09T09:58:32.861Z,101595.65
2023-02-09T10:01:00.687Z,101596.34
2023-02-09T10:03:28.490Z,101589.57
2023-02-09T10:05:56.252Z,101583.14
2023-02-09T10:08:24.018Z,101578.55
2023-02-09T10:10:51.681Z,101575.79
2023-02-09T10:13:19.441Z,101574.38
2023-02-09T10:15:47.439Z,101570.80
2023-02-09T10:18:15.378Z,101566.98
2023-02-09T10:20:43.143Z,101563.81
2023-02-09T10:23:10.805Z,101558.81
2023-02-09T10:25:39.080Z,101553.57
2023-02-09T10:28:06.859Z,101550.60
2023-02-09T10:30:34.670Z,101549.98
2023-02-09T10:33:02.473Z,101547.10
2023-02-09T10:35:30.233Z,101545.23
2023-02-09T10:37:58.211Z,101542.34
2023-02-09T10:40:25.965Z,101539.02
2023-02-09T10:42:53.626Z,101529.39
2023-02-09T10:45:21.286Z,101522.04
2023-02-09T10:47:49.050Z,101516.58
2023-02-09T10:50:19.737Z,101516.98
2023-02-09T10:52:47.652Z,101514.39
2023-02-09T10:55:15.313Z,101507.81
2023-02-09T10:57:43.076Z,101508.38
2023-02-09T11:00:10.838Z,101503.10
2023-02-09T11:02:38.613Z,101501.58
2023-02-09T11:05:06.310Z,101494.35
2023-02-09T11:07:34.050Z,101490.17
2023-02-09T11:10:01.799Z,101479.36
2023-02-09T11:12:30.586Z,101480.77
2023-02-09T11:14:58.252Z,101474.95
2023-02-09T11:17:25.918Z,101469.80
2023-02-09T11:19:53.676Z,101456.45
2023-02-09T11:22:21.335Z,101457.11
2023-02-09T11:24:49.098Z,101451.45
2023-02-09T11:27:16.860Z,101445.16
2023-02-09T11:29:44.835Z,101441.65
2023-02-09T11:32:12.495Z,101442.75
2023-02-09T11:34:40.153Z,101442.05
2023-02-09T11:37:07.820Z,101438.94
2023-02-09T11:39:37.483Z,101436.19
2023-02-09T11:42:24.744Z,101436.23
2023-02-09T11:44:52.877Z,101432.66
2023-02-09T11:47:20.689Z,101428.20
2023-02-09T11:49:48.352Z,101423.32
2023-02-09T11:52:16.007Z,101421.72
2023-02-09T11:54:45.716Z,101421.35
2023-02-09T11:57:13.494Z,101416.16
2023-02-09T11:59:41.247Z,101414.72
2023-02-09T12:02:09.013Z,101414.74
2023-02-09T12:04:36.669Z,101406.52
2023-02-09T12:07:04.326Z,101402.48
2023-02-09T12:09:32.326Z,101394.83
2023-02-09T12:12:00.072Z,101391.16
2023-02-09T12:14:27.823Z,101389.83
2023-02-09T12:16:55.486Z,101391.05
2023-02-09T12:19:23.149Z,101387.38
2023-02-09T12:21:50.807Z,101383.48
2023-02-09T12:24:18.573Z,101382.35
2023-02-09T12:26:46.950Z,101375.21
2023-02-09T12:29:14.610Z,101371.26
2023-02-09T12:31:45.171Z,101372.45
2023-02-09T12:34:14.034Z,101373.87
2023-02-09T12:36:41.689Z,101370.67
2023-02-09T12:39:09.452Z,101368.13
2023-02-09T12:41:38.165Z,101364.55
2023-02-09T12:44:07.335Z,101358.50
2023-02-09T12:46:35.070Z,101351.75
2023-02-09T12:49:02.867Z,101345.55
2023-02-09T12:51:30.526Z,101346.80
2023-02-09T12:53:58.286Z,101343.85
2023-02-09T12:56:26.057Z,101343.34
2023-02-09T12:58:54.527Z,101336.02
2023-02-09T13:01:22.236Z,101334.73
2023-02-09T13:03:50.209Z,101328.52
2023-02-09T13:06:18.031Z,101327.68
2023-02-09T13:08:46.395Z,101331.98
2023-02-09T13:11:14.072Z,101334.21
2023-02-09T13:13:41.837Z,101332.67
2023-02-09T13:16:10.182Z,101326.64
2023-02-09T13:18:37.979Z,101329.70
2023-02-09T13:21:05.646Z,101326.33
2023-02-09T13:23:33.403Z,101327.11
2023-02-09T13:26:01.176Z,101324.51
2023-02-09T13:28:28.995Z,101326.66
2023-02-09T13:30:56.802Z,101325.23
2023-02-09T13:33:24.564Z,101323.04
2023-02-09T13:35:52.268Z,101317.27
2023-02-09T13:38:21.727Z,101316.34
2023-02-09T13:40:49.392Z,101312.42
2023-02-09T13:43:17.573Z,101313.08
2023-02-09T13:45:45.605Z,101311.23
2023-02-09T13:48:13.608Z,101311.70
2023-02-09T13:50:41.267Z,101308.24
2023-02-09T13:53:09.667Z,101310.11
2023-02-09T13:55:41.018Z,101310.71
2023-02-09T13:58:08.797Z,101314.45
2023-02-09T14:00:36.622Z,101309.48
2023-02-09T14:03:04.564Z,101309.91
2023-02-09T14:05:32.355Z,101303.32
2023-02-09T14:08:00.147Z,101297.53
2023-02-09T14:10:27.788Z,101299.73
2023-02-09T14:13:00.147Z,101297.64
2023-02-09T14:15:46.878Z,101295.77
2023-02-09T14:18:14.927Z,101291.33
2023-02-09T14:20:43.206Z,101290.33
2023-02-09T14:23:10.909Z,101292.40
2023-02-09T14:25:40.451Z,101282.55
2023-02-09T14:28:08.180Z,101286.90
2023-02-09T14:30:36.935Z,101289.20
2023-02-09T14:33:04.785Z,101289.84
2023-02-09T14:35:33.675Z,101289.84
2023-02-09T14:38:01.429Z,101283.68
2023-02-09T14:40:31.154Z,101275.93
2023-02-09T14:42:58.914Z,101273.91
2023-02-09T14:45:26.692Z,101270.86
2023-02-09T14:47:54.342Z,101264.48
2023-02-09T14:50:22.210Z,101262.59
2023-02-09T14:52:49.867Z,101260.52
2023-02-09T14:55:17.637Z,101256.23
2023-02-09T14:57:45.299Z,101253.52
2023-02-09T15:00:12.955Z,101248.77
2023-02-09T15:02:40.769Z,101242.34
2023-02-09T15:05:08.588Z,101240.34
2023-02-09T15:07:36.365Z,101238.98
2023-02-09T15:10:04.221Z,101234.14
2023-02-09T15:12:31.986Z,101233.23
2023-02-09T15:14:59.754Z,101233.33
2023-02-09T15:17:28.270Z,101233.16
2023-02-09T15:19:55.992Z,101233.42
2023-02-09T15:22:23.649Z,101230.48
2023-02-09T15:24:52.785Z,101225.42
2023-02-09T15:27:22.148Z,101225.36
2023-02-09T15:29:49.805Z,101220.95
2023-02-09T15:32:17.467Z,101219.78
2023-02-09T15:34:45.233Z,101217.40
2023-02-09T15:37:12.890Z,101224.11
2023-02-09T15:39:40.653Z,101225.58
2023-02-09T15:42:26.953Z,101221.48
2023-02-09T15:45:13.664Z,101217.41
2023-02-09T15:47:52.897Z,101216.77
2023-02-09T15:50:20.663Z,101218.72
2023-02-09T15:52:48.440Z,101219.90
2023-02-09T15:55:16.185Z,101221.64
2023-02-09T15:57:43.851Z,101225.36
2023-02-09T16:00:11.614Z,101220.59
2023-02-09T16:02:39.417Z,101219.58
2023-02-09T16:05:07.547Z,101219.40
2023-02-09T16:07:35.426Z,101219.70
2023-02-09T16:10:03.249Z,101223.42
2023-02-09T16:12:31.157Z,101227.65
2023-02-09T16:14:58.807Z,101224.66
2023-02-09T16:17:26.573Z,101220.98
2023-02-09T16:19:54.344Z,101221.58
2023-02-09T16:22:25.272Z,101230.64
2023-02-09T16:24:52.934Z,101228.20
2023-02-09T16:27:21.939Z,101223.08
2023-02-09T16:29:49.694Z,101215.59
2023-02-09T16:32:17.473Z,101217.58
2023-02-09T16:34:45.226Z,101217.11
2023-02-09T16:37:12.886Z,101217.48
2023-02-09T16:39:40.562Z,101218.36
2023-02-09T16:42:08.313Z,101215.79
2023-02-09T16:44:38.027Z,101214.47
2023-02-09T16:47:05.887Z,101212.08
2023-02-09T16:49:33.861Z,101213.70
2023-02-09T16:52:01.619Z,101216.55
2023-02-09T16:54:29.290Z,101214.31
2023-02-09T16:56:57.046Z,101213.89
2023-02-09T16:59:24.810Z,101218.83
2023-02-09T17:01:52.665Z,101219.05
2023-02-09T17:04:20.439Z,101218.64
2023-02-09T17:06:48.204Z,101216.02
2023-02-09T17:09:15.884Z,101216.19
2023-02-09T17:11:43.773Z,101214.83
2023-02-09T17:14:12.692Z,101215.02
2023-02-09T17:16:43.524Z,101214.15
2023-02-09T17:19:11.328Z,101214.98
2023-02-09T17:21:39.089Z,101214.60
2023-02-09T17:24:06.849Z,101215.86
2023-02-09T17:26:34.789Z,101214.08
2023-02-09T17:29:02.483Z,101212.70
2023-02-09T17:31:36.093Z,101212.89
2023-02-09T17:34:08.803Z,101211.98
2023-02-09T17:36:42.062Z,101216.39
2023-02-09T17:39:11.148Z,101209.02
2023-02-09T17:41:40.961Z,101208.79
2023-02-09T17:44:20.765Z,101204.52
2023-02-09T17:46:54.095Z,101207.64
2023-02-09T17:49:21.762Z,101203.30
2023-02-09T17:51:49.645Z,101197.14
2023-02-09T17:54:18.007Z,101197.63
2023-02-09T17:56:45.774Z,101194.65
2023-02-09T17:59:15.109Z,101189.27
2023-02-09T18:01:42.993Z,101192.62
2023-02-09T18:04:22.822Z,101191.11
2023-02-09T18:07:07.671Z,101186.52
2023-02-09T18:09:38.588Z,101187.11
2023-02-09T18:12:06.358Z,101187.58
2023-02-09T18:14:34.347Z,101180.02
2023-02-09T18:17:02.322Z,101177.41
2023-02-09T18:19:30.158Z,101178.65
2023-02-09T18:21:57.920Z,101180.22
2023-02-09T18:24:25.579Z,101179.26
2023-02-09T18:26:53.347Z,101178.70
2023-02-09T18:29:22.953Z,101179.26
2023-02-09T18:31:51.135Z,101176.09
2023-02-09T18:34:18.785Z,101172.48
2023-02-09T18:36:46.547Z,101170.80
2023-02-09T18:39:14.208Z,101168.48
2023-02-09T18:41:42.093Z,101172.92
2023-02-09T18:44:09.956Z,101174.96
2023-02-09T18:46:37.781Z,101175.76
2023-02-09T18:49:05.671Z,101170.25
2023-02-09T18:51:33.435Z,101174.10
2023-02-09T18:54:01.198Z,101175.41
2023-02-09T18:56:28.863Z,101176.00
2023-02-09T18:58:56.624Z,101174.54
2023-02-09T19:01:24.430Z,101172.59
2023-02-09T19:03:52.236Z,101175.99
2023-02-09T19:06:20.845Z,101175.36
2023-02-09T19:08:48.605Z,101179.10
2023-02-09T19:11:16.370Z,101176.35
2023-02-09T19:14:04.006Z,101177.92
2023-02-09T19:16:31.662Z,101177.98
2023-02-09T19:18:59.343Z,101172.38
2023-02-09T19:21:27.500Z,101174.17
2023-02-09T19:23:55.250Z,101171.07
2023-02-09T19:26:22.922Z,101166.33
2023-02-09T19:28:50.686Z,101160.86
2023-02-09T19:31:18.613Z,101159.27
2023-02-09T19:33:46.431Z,101160.05
2023-02-09T19:36:14.184Z,101156.59
2023-02-09T19:38:41.949Z,101153.91
2023-02-09T19:41:12.500Z,101150.25
2023-02-09T19:43:40.252Z,101147.02
2023-02-09T19:46:08.099Z,101141.30
2023-02-09T19:48:35.971Z,101137.73
2023-02-09T19:51:03.735Z,101129.25
2023-02-09T19:53:31.908Z,101126.55
2023-02-09T19:55:59.675Z,101123.70
2023-02-09T19:58:27.335Z,101121.43
2023-02-09T20:00:56.239Z,101117.27
2023-02-09T20:03:24.564Z,101115.41
2023-02-09T20:05:52.472Z,101112.92
2023-02-09T20:08:20.231Z,101112.86
2023-02-09T20:10:48.227Z,101109.70
2023-02-09T20:13:16.273Z,101110.67
2023-02-09T20:15:44.152Z,101105.80
2023-02-09T20:18:13.564Z,101102.98
2023-02-09T20:20:43.678Z,101101.45
2023-02-09T20:23:11.425Z,101098.41
2023-02-09T20:25:39.186Z,101095.02
2023-02-09T20:28:06.969Z,101094.88
2023-02-09T20:30:34.718Z,101092.13
2023-02-09T20:33:02.578Z,101091.06
2023-02-09T20:35:30.445Z,101091.64
2023-02-09T20:37:58.108Z,101094.67
2023-02-09T20:40:25.871Z,101093.98
2023-02-09T20:43:12.375Z,101092.66
2023-02-09T20:45:59.080Z,101084.55
2023-02-09T20:48:26.857Z,101086.79
2023-02-09T20:50:54.610Z,101084.30
2023-02-09T20:53:22.756Z,101081.86
2023-02-09T20:55:50.448Z,101083.02
2023-02-09T20:58:19.135Z,101081.09
2023-02-09T21:00:47.080Z,101078.09
2023-02-09T21:03:15.273Z,101070.69
2023-02-09T21:05:42.953Z,101070.06
2023-02-09T21:08:10.595Z,101064.24
2023-02-09T21:10:38.685Z,101065.11
2023-02-09T21:13:06.536Z,101067.73
2023-02-09T21:15:34.295Z,101068.43
2023-02-09T21:18:02.060Z,101069.02
2023-02-09T21:20:32.385Z,101070.70
2023-02-09T21:23:00.152Z,101074.95
2023-02-09T21:25:30.888Z,101069.02
2023-02-09T21:27:59.970Z,101068.95
2023-02-09T21:30:27.853Z,101067.34
2023-02-09T21:32:55.609Z,101064.27
2023-02-09T21:35:23.372Z,101058.59
2023-02-09T21:37:51.041Z,101053.52
2023-02-09T21:40:20.641Z,101053.52
2023-02-09T21:42:48.299Z,101051.77
2023-02-09T21:45:16.063Z,101053.63
2023-02-09T21:47:43.830Z,101052.71
2023-02-09T21:50:11.584Z,101051.34
2023-02-09T21:52:39.350Z,101051.76
2023-02-09T21:55:08.557Z,101053.76
2023-02-09T21:57:36.414Z,101058.89
2023-02-09T22:00:05.730Z,101061.55
2023-02-09T22:02:33.490Z,101062.09
2023-02-09T22:05:01.342Z,101067.36
2023-02-09T22:07:29.123Z,101062.50
2023-02-09T22:09:56.796Z,101069.13
2023-02-09T22:12:24.529Z,101067.23
2023-02-09T22:14:52.299Z,101070.09
2023-02-09T22:17:20.169Z,101066.88
2023-02-09T22:19:47.922Z,101071.45
2023-02-09T22:22:15.686Z,101066.98
2023-02-09T22:24:43.450Z,101065.48
2023-02-09T22:27:11.217Z,101065.85
2023-02-09T22:29:39.079Z,101061.59
2023-02-09T22:32:06.812Z,101059.52
2023-02-09T22:34:34.503Z,101059.85
2023-02-09T22:37:02.275Z,101062.45
2023-02-09T22:39:30.032Z,101063.52
2023-02-09T22:42:01.396Z,101063.35
2023-02-09T22:44:30.702Z,101065.40
2023-02-09T22:46:58.443Z,101064.27
2023-02-09T22:49:26.210Z,101063.55
2023-02-09T22:51:53.874Z,101057.69
2023-02-09T22:54:21.639Z,101059.66
2023-02-09T22:56:49.404Z,101053.91
2023-02-09T22:59:17.170Z,101046.77
2023-02-09T23:01:44.969Z,101039.35
2023-02-09T23:04:12.866Z,101038.33
2023-02-09T23:06:40.669Z,101041.14
2023-02-09T23:09:08.435Z,101044.48
2023-02-09T23:11:36.100Z,101052.43
2023-02-09T23:14:11.449Z,101052.73
2023-02-09T23:16:39.821Z,101053.79
2023-02-09T23:19:07.481Z,101053.30
2023-02-09T23:21:35.252Z,101056.61
2023-02-09T23:24:02.868Z,101056.45
2023-02-09T23:26:30.567Z,101056.69
2023-02-09T23:28:58.435Z,101056.86
2023-02-09T23:31:26.460Z,101054.77
2023-02-09T23:33:54.360Z,101058.52
2023-02-09T23:36:22.136Z,101054.23
2023-02-09T23:38:49.892Z,101048.92
2023-02-09T23:41:19.302Z,101051.27
2023-02-09T23:43:47.063Z,101044.88
2023-02-09T23:46:14.854Z,101044.30
2023-02-09T23:48:44.736Z,101045.27
2023-02-09T23:51:12.507Z,101053.69
2023-02-09T23:53:40.278Z,101058.14
2023-02-09T23:56:08.034Z,101062.47
2023-02-09T23:58:36.735Z,101064.64
